createdAt,value
2022-07-29T00:00:29.390Z,19.94
2022-07-29T00:01:29.715Z,19.93
2022-07-29T00:02:30.655Z,19.93
2022-07-29T00:03:31.081Z,19.93
2022-07-29T00:04:31.763Z,19.84
2022-07-29T00:05:31.721Z,19.87
2022-07-29T00:06:32.650Z,19.81
2022-07-29T00:09:32.955Z,19.85
2022-07-29T00:10:33.324Z,19.87
2022-07-29T00:11:34.258Z,19.92
2022-07-29T00:12:36.397Z,19.87
2022-07-29T00:13:38.761Z,19.92
2022-07-29T00:14:36.280Z,19.87
2022-07-29T00:15:36.839Z,19.9
2022-07-29T00:16:38.033Z,19.87
2022-07-29T00:17:38.553Z,19.96
2022-07-29T00:18:39.464Z,19.85
2022-07-29T00:19:45.954Z,19.89
2022-07-29T00:20:40.871Z,19.94
2022-07-29T00:21:41.434Z,19.84
2022-07-29T00:22:41.637Z,19.84
2022-07-29T00:23:42.980Z,19.87
2022-07-29T00:24:43.209Z,19.82
2022-07-29T00:25:43.705Z,19.81
2022-07-29T00:26:44.633Z,19.79
2022-07-29T00:28:45.594Z,19.74
2022-07-29T00:29:45.494Z,19.81
2022-07-29T00:31:46.826Z,19.85
2022-07-29T00:32:46.759Z,19.78
2022-07-29T00:33:50.843Z,19.78
2022-07-29T00:34:51.657Z,19.78
2022-07-29T00:35:48.580Z,19.71
2022-07-29T00:36:48.898Z,19.64
2022-07-29T00:37:50.254Z,19.66
2022-07-29T00:38:50.709Z,19.64
2022-07-29T00:39:51.643Z,19.63
2022-07-29T00:40:52.133Z,19.67
2022-07-29T00:41:53.809Z,19.6
2022-07-29T00:42:53.341Z,19.62
2022-07-29T00:43:53.492Z,19.63
2022-07-29T00:44:53.414Z,19.63
2022-07-29T00:45:53.747Z,19.66
2022-07-29T00:46:55.088Z,19.6
2022-07-29T00:47:55.640Z,19.66
2022-07-29T00:48:56.392Z,19.62
2022-07-29T00:49:56.556Z,19.6
2022-07-29T00:50:56.804Z,19.63
2022-07-29T00:51:58.020Z,19.6
2022-07-29T00:52:58.955Z,19.67
2022-07-29T00:53:59.211Z,19.67
2022-07-29T00:54:59.175Z,19.59
2022-07-29T00:56:00.122Z,19.59
2022-07-29T00:57:00.093Z,19.66
2022-07-29T00:58:00.202Z,19.67
2022-07-29T00:59:01.436Z,19.59
2022-07-29T01:00:01.670Z,19.59
2022-07-29T01:01:02.131Z,19.56
2022-07-29T01:02:03.224Z,19.55
2022-07-29T01:03:05.195Z,19.56
2022-07-29T01:04:04.119Z,19.52
2022-07-29T01:05:04.783Z,19.53
2022-07-29T01:06:05.433Z,19.53
2022-07-29T01:07:05.791Z,19.49
2022-07-29T01:08:06.391Z,19.48
2022-07-29T01:09:06.604Z,19.49
2022-07-29T01:10:06.771Z,19.52
2022-07-29T01:15:10.336Z,19.45
2022-07-29T01:16:11.194Z,19.49
2022-07-29T01:17:11.363Z,19.48
2022-07-29T01:18:18.450Z,19.53
2022-07-29T01:19:12.661Z,19.52
2022-07-29T01:20:13.288Z,19.47
2022-07-29T01:21:15.192Z,19.44
2022-07-29T01:22:14.239Z,19.47
2022-07-29T01:23:14.170Z,19.48
2022-07-29T01:24:19.261Z,19.39
2022-07-29T01:25:16.474Z,19.42
2022-07-29T01:26:20.973Z,19.39
2022-07-29T01:27:21.681Z,19.45
2022-07-29T01:28:18.431Z,19.42
2022-07-29T01:29:19.027Z,19.39
2022-07-29T01:30:24.283Z,19.38
2022-07-29T01:31:32.486Z,19.34
2022-07-29T01:32:34.946Z,19.37
2022-07-29T01:33:21.200Z,19.38
2022-07-29T01:34:21.900Z,19.47
2022-07-29T01:35:21.834Z,19.32
2022-07-29T01:36:22.771Z,19.38
2022-07-29T01:37:22.987Z,19.3
2022-07-29T01:38:23.328Z,19.35
2022-07-29T01:39:23.552Z,19.3
2022-07-29T01:40:24.407Z,19.2
2022-07-29T01:41:24.918Z,19.24
2022-07-29T01:42:25.431Z,19.26
2022-07-29T01:43:25.937Z,19.22
2022-07-29T01:44:26.864Z,19.23
2022-07-29T01:45:27.802Z,19.23
2022-07-29T01:46:27.901Z,19.2
2022-07-29T01:47:27.750Z,19.05
2022-07-29T01:48:28.046Z,19.23
2022-07-29T01:49:29.753Z,19.15
2022-07-29T01:50:29.732Z,19.22
2022-07-29T01:51:29.960Z,19.07
2022-07-29T01:52:30.599Z,19.15
2022-07-29T01:53:38.423Z,19.04
2022-07-29T01:54:31.963Z,19.12
2022-07-29T01:56:32.536Z,19.08
2022-07-29T01:57:33.187Z,19.04
2022-07-29T01:58:35.129Z,19.15
2022-07-29T01:59:39.001Z,19.04
2022-07-29T02:00:35.515Z,18.98
2022-07-29T02:01:35.822Z,18.98
2022-07-29T02:02:36.535Z,18.98
2022-07-29T02:03:36.751Z,18.98
2022-07-29T02:04:37.501Z,18.94
2022-07-29T02:05:37.872Z,18.91
2022-07-29T02:06:38.142Z,18.91
2022-07-29T02:07:38.796Z,18.92
2022-07-29T02:08:39.556Z,18.89
2022-07-29T02:09:39.795Z,18.89
2022-07-29T02:10:40.713Z,18.86
2022-07-29T02:11:41.626Z,18.78
2022-07-29T02:12:41.862Z,18.76
2022-07-29T02:13:41.738Z,18.74
2022-07-29T02:14:42.401Z,18.79
2022-07-29T02:15:43.197Z,18.76
2022-07-29T02:16:43.651Z,18.71
2022-07-29T02:17:46.915Z,18.7
2022-07-29T02:18:44.650Z,18.74
2022-07-29T02:19:45.280Z,18.73
2022-07-29T02:20:45.922Z,18.7
2022-07-29T02:21:46.439Z,18.7
2022-07-29T02:22:46.352Z,18.67
2022-07-29T02:23:57.556Z,18.78
2022-07-29T02:24:47.771Z,18.71
2022-07-29T02:25:48.850Z,18.73
2022-07-29T02:26:48.453Z,18.67
2022-07-29T02:27:48.700Z,18.71
2022-07-29T02:28:49.414Z,18.68
2022-07-29T02:29:49.942Z,18.68
2022-07-29T02:30:50.866Z,18.79
2022-07-29T02:31:51.189Z,18.73
2022-07-29T02:32:53.049Z,18.78
2022-07-29T02:33:52.561Z,18.73
2022-07-29T02:34:52.480Z,18.7
2022-07-29T02:35:52.991Z,18.78
2022-07-29T02:36:55.538Z,18.67
2022-07-29T02:37:53.750Z,18.76
2022-07-29T02:38:54.078Z,18.74
2022-07-29T02:39:54.289Z,18.67
2022-07-29T02:40:55.505Z,18.7
2022-07-29T02:41:55.737Z,18.71
2022-07-29T02:42:55.975Z,18.73
2022-07-29T02:43:56.489Z,18.74
2022-07-29T02:44:56.783Z,18.7
2022-07-29T02:45:57.739Z,18.73
2022-07-29T02:46:58.149Z,18.73
2022-07-29T02:47:58.427Z,18.73
2022-07-29T02:48:58.944Z,18.7
2022-07-29T02:50:00.857Z,18.78
2022-07-29T02:50:59.845Z,18.73
2022-07-29T02:52:00.413Z,18.68
2022-07-29T02:53:02.903Z,18.73
2022-07-29T02:54:01.539Z,18.71
2022-07-29T02:55:02.936Z,18.67
2022-07-29T02:56:03.137Z,18.73
2022-07-29T02:57:04.051Z,18.68
2022-07-29T02:58:04.249Z,18.71
2022-07-29T02:59:04.537Z,18.79
2022-07-29T03:00:05.485Z,18.74
2022-07-29T03:01:07.031Z,18.82
2022-07-29T03:02:07.907Z,18.78
2022-07-29T03:03:08.386Z,18.83
2022-07-29T03:04:09.052Z,18.81
2022-07-29T03:05:10.716Z,18.76
2022-07-29T03:06:37.862Z,18.79
2022-07-29T03:07:10.626Z,18.78
2022-07-29T03:08:10.971Z,18.74
2022-07-29T03:09:18.238Z,18.73
2022-07-29T03:10:19.103Z,18.76
2022-07-29T03:11:13.597Z,18.74
2022-07-29T03:12:13.454Z,18.78
2022-07-29T03:13:13.656Z,18.74
2022-07-29T03:14:15.402Z,18.73
2022-07-29T03:15:14.489Z,18.71
2022-07-29T03:16:14.792Z,18.82
2022-07-29T03:17:14.739Z,18.78
2022-07-29T03:18:15.941Z,18.76
2022-07-29T03:19:16.231Z,18.74
2022-07-29T03:20:16.432Z,18.78
2022-07-29T03:21:16.655Z,18.78
2022-07-29T03:22:19.822Z,18.79
2022-07-29T03:23:18.450Z,18.81
2022-07-29T03:24:19.902Z,18.79
2022-07-29T03:25:19.816Z,18.79
2022-07-29T03:26:20.163Z,18.76
2022-07-29T03:27:20.662Z,18.79
2022-07-29T03:28:22.673Z,18.82
2022-07-29T03:29:20.528Z,18.89
2022-07-29T03:30:24.015Z,18.91
2022-07-29T03:31:21.655Z,18.89
2022-07-29T03:32:30.554Z,18.92
2022-07-29T03:33:22.219Z,18.92
2022-07-29T03:34:24.108Z,18.88
2022-07-29T03:35:23.025Z,18.91
2022-07-29T03:36:23.932Z,18.79
2022-07-29T03:37:24.428Z,18.94
2022-07-29T03:38:26.453Z,18.85
2022-07-29T03:39:25.281Z,18.91
2022-07-29T03:40:25.514Z,18.92
2022-07-29T03:41:28.634Z,18.92
2022-07-29T03:42:34.273Z,18.86
2022-07-29T03:43:27.622Z,18.89
2022-07-29T03:44:28.156Z,18.86
2022-07-29T03:45:28.358Z,18.88
2022-07-29T03:46:28.850Z,18.91
2022-07-29T03:48:01.415Z,18.85
2022-07-29T03:48:30.354Z,19
2022-07-29T03:49:30.652Z,18.88
2022-07-29T03:50:30.854Z,18.94
2022-07-29T03:51:39.182Z,18.91
2022-07-29T03:52:32.113Z,19
2022-07-29T03:53:32.435Z,18.92
2022-07-29T03:54:33.354Z,19
2022-07-29T03:55:33.848Z,18.88
2022-07-29T03:56:34.351Z,18.91
2022-07-29T03:57:34.288Z,19.04
2022-07-29T03:58:34.780Z,18.96
2022-07-29T03:59:35.350Z,18.97
2022-07-29T04:00:35.587Z,18.92
2022-07-29T04:01:36.244Z,18.98
2022-07-29T04:02:36.695Z,19.08
2022-07-29T04:03:37.449Z,19.01
2022-07-29T04:04:37.587Z,19.07
2022-07-29T04:05:37.806Z,19.04
2022-07-29T04:06:39.122Z,19.05
2022-07-29T04:07:39.172Z,19.09
2022-07-29T04:08:40.120Z,19.07
2022-07-29T04:09:41.129Z,19.08
2022-07-29T04:10:42.042Z,19.07
2022-07-29T04:12:08.360Z,19.07
2022-07-29T04:12:43.854Z,19.15
2022-07-29T04:13:44.344Z,19.08
2022-07-29T04:14:44.850Z,19.09
2022-07-29T04:15:44.935Z,19.12
2022-07-29T04:16:45.656Z,19.07
2022-07-29T04:17:46.150Z,19.07
2022-07-29T04:18:46.735Z,19.07
2022-07-29T04:19:46.738Z,19.12
2022-07-29T04:20:47.955Z,19.08
2022-07-29T04:21:48.878Z,19.09
2022-07-29T04:22:49.507Z,19.07
2022-07-29T04:23:58.940Z,19.11
2022-07-29T04:24:50.862Z,19.08
2022-07-29T04:25:52.385Z,19.11
2022-07-29T04:26:52.288Z,19.04
2022-07-29T04:27:52.507Z,19.11
2022-07-29T04:28:53.707Z,19.08
2022-07-29T04:30:03.168Z,19.07
2022-07-29T04:30:55.534Z,19.04
2022-07-29T04:31:56.135Z,19.11
2022-07-29T04:32:57.034Z,19.15
2022-07-29T04:33:58.241Z,19.12
2022-07-29T04:34:58.865Z,19.17
2022-07-29T04:36:01.316Z,19.23
2022-07-29T04:36:59.435Z,19.23
2022-07-29T04:38:00.759Z,19.17
2022-07-29T04:39:01.486Z,19.16
2022-07-29T04:40:01.624Z,19.19
2022-07-29T04:41:02.542Z,19.16
2022-07-29T04:42:04.632Z,19.17
2022-07-29T04:43:06.637Z,19.2
2022-07-29T04:44:05.600Z,19.17
2022-07-29T04:45:08.097Z,19.17
2022-07-29T04:46:06.433Z,19.15
2022-07-29T04:47:07.165Z,19.23
2022-07-29T04:48:07.387Z,19.24
2022-07-29T04:49:08.918Z,19.26
2022-07-29T04:50:09.090Z,19.2
2022-07-29T04:51:10.600Z,19.24
2022-07-29T04:52:10.489Z,19.24
2022-07-29T04:53:10.757Z,19.26
2022-07-29T04:54:10.961Z,19.24
2022-07-29T04:55:11.666Z,19.27
2022-07-29T04:56:12.168Z,19.27
2022-07-29T04:57:12.110Z,19.29
2022-07-29T04:58:13.314Z,19.26
2022-07-29T04:59:13.787Z,19.22
2022-07-29T05:00:14.258Z,19.26
2022-07-29T05:01:15.063Z,19.22
2022-07-29T05:02:15.270Z,19.24
2022-07-29T05:03:16.229Z,19.26
2022-07-29T05:04:16.687Z,19.32
2022-07-29T05:05:17.524Z,19.29
2022-07-29T05:06:17.424Z,19.34
2022-07-29T05:07:18.059Z,19.34
2022-07-29T05:08:17.682Z,19.27
2022-07-29T05:09:18.330Z,19.32
2022-07-29T05:10:19.356Z,19.26
2022-07-29T05:11:30.727Z,19.3
2022-07-29T05:12:20.372Z,19.42
2022-07-29T05:13:21.573Z,19.48
2022-07-29T05:14:22.146Z,19.55
2022-07-29T05:15:23.090Z,19.55
2022-07-29T05:16:23.683Z,19.6
2022-07-29T05:17:23.948Z,19.67
2022-07-29T05:18:26.687Z,19.63
2022-07-29T05:19:26.181Z,19.64
2022-07-29T05:20:26.869Z,19.75
2022-07-29T05:21:26.799Z,19.71
2022-07-29T05:22:28.020Z,19.79
2022-07-29T05:23:28.278Z,19.81
2022-07-29T05:24:29.488Z,19.89
2022-07-29T05:25:46.405Z,19.92
2022-07-29T05:26:30.031Z,19.89
2022-07-29T05:27:31.255Z,19.9
2022-07-29T05:28:32.454Z,19.9
2022-07-29T05:29:51.295Z,20.04
2022-07-29T05:30:39.930Z,20.03
2022-07-29T05:31:40.207Z,20.04
2022-07-29T05:32:40.130Z,20.02
2022-07-29T05:33:43.111Z,20.07
2022-07-29T05:34:52.135Z,20.18
2022-07-29T05:35:42.363Z,20.07
2022-07-29T05:36:42.810Z,20.15
2022-07-29T05:37:43.031Z,20.24
2022-07-29T05:38:43.147Z,20.32
2022-07-29T05:39:57.602Z,20.27
2022-07-29T05:40:47.175Z,20.29
2022-07-29T05:41:52.302Z,20.39
2022-07-29T05:42:48.528Z,20.36
2022-07-29T05:43:49.023Z,20.5
2022-07-29T05:44:49.231Z,20.4
2022-07-29T05:45:56.274Z,20.58
2022-07-29T05:46:50.883Z,20.55
2022-07-29T05:47:50.804Z,20.53
2022-07-29T05:48:51.224Z,20.68
2022-07-29T05:49:52.036Z,20.64
2022-07-29T05:50:53.054Z,20.63
2022-07-29T05:51:53.660Z,20.73
2022-07-29T05:52:55.241Z,20.74
2022-07-29T05:53:54.745Z,20.82
2022-07-29T05:54:55.963Z,20.85
2022-07-29T05:55:56.258Z,20.88
2022-07-29T05:56:56.453Z,20.92
2022-07-29T05:57:56.436Z,20.93
2022-07-29T05:58:57.462Z,20.92
2022-07-29T05:59:57.596Z,21.01
2022-07-29T06:00:58.272Z,21.03
2022-07-29T06:01:59.375Z,21.01
2022-07-29T06:03:00.049Z,21.05
2022-07-29T06:04:00.740Z,21.03
2022-07-29T06:05:01.237Z,21.1
2022-07-29T06:06:01.735Z,21.14
2022-07-29T06:07:02.076Z,21.15
2022-07-29T06:08:03.003Z,21.22
2022-07-29T06:09:14.306Z,21.32
2022-07-29T06:10:04.540Z,21.3
2022-07-29T06:11:05.536Z,21.33
2022-07-29T06:12:05.743Z,21.38
2022-07-29T06:13:05.961Z,21.35
2022-07-29T06:14:06.604Z,21.38
2022-07-29T06:15:07.581Z,21.45
2022-07-29T06:19:12.021Z,21.51
2022-07-29T06:20:15.167Z,21.56
2022-07-29T06:21:13.416Z,21.51
2022-07-29T06:22:13.343Z,21.59
2022-07-29T06:23:13.565Z,21.68
2022-07-29T06:24:15.157Z,21.63
2022-07-29T06:25:14.772Z,21.7
2022-07-29T06:26:15.695Z,21.69
2022-07-29T06:27:16.420Z,21.65
2022-07-29T06:28:16.349Z,21.62
2022-07-29T06:29:16.549Z,21.72
2022-07-29T06:30:16.689Z,21.66
2022-07-29T06:31:17.110Z,21.62
2022-07-29T06:32:23.284Z,21.72
2022-07-29T06:33:18.331Z,21.66
2022-07-29T06:34:21.285Z,21.75
2022-07-29T06:35:55.213Z,21.81
2022-07-29T06:36:22.913Z,21.81
2022-07-29T06:37:21.423Z,21.81
2022-07-29T06:38:47.624Z,21.81
2022-07-29T06:39:21.314Z,21.84
2022-07-29T06:40:21.679Z,21.91
2022-07-29T06:41:21.906Z,21.92
2022-07-29T06:43:23.023Z,21.99
2022-07-29T06:44:24.191Z,22.07
2022-07-29T06:45:28.551Z,22
2022-07-29T06:46:25.112Z,22.14
2022-07-29T06:47:25.529Z,22.12
2022-07-29T06:48:25.751Z,22.25
2022-07-29T06:49:26.875Z,22.23
2022-07-29T06:50:29.375Z,22.28
2022-07-29T06:51:29.461Z,22.4
2022-07-29T06:52:28.681Z,22.33
2022-07-29T06:53:29.624Z,22.36
2022-07-29T06:54:30.326Z,22.36
2022-07-29T06:55:31.623Z,22.41
2022-07-29T06:56:31.646Z,22.49
2022-07-29T06:57:31.958Z,22.55
2022-07-29T06:58:31.905Z,22.56
2022-07-29T06:59:41.389Z,22.55
2022-07-29T07:00:33.383Z,22.61
2022-07-29T07:01:34.558Z,22.7
2022-07-29T07:02:35.306Z,22.7
2022-07-29T07:03:35.737Z,22.84
2022-07-29T07:04:36.672Z,22.78
2022-07-29T07:05:37.940Z,22.84
2022-07-29T07:06:37.886Z,22.98
2022-07-29T07:07:38.390Z,22.99
2022-07-29T07:08:38.595Z,23.07
2022-07-29T07:09:46.458Z,23.14
2022-07-29T07:10:40.079Z,23.18
2022-07-29T07:11:40.324Z,23.36
2022-07-29T07:12:40.660Z,23.42
2022-07-29T07:13:42.507Z,23.4
2022-07-29T07:14:41.139Z,23.62
2022-07-29T07:15:45.226Z,23.64
2022-07-29T07:16:42.728Z,23.73
2022-07-29T07:17:43.357Z,23.69
2022-07-29T07:18:43.286Z,23.66
2022-07-29T07:19:44.317Z,23.64
2022-07-29T07:20:44.687Z,23.73
2022-07-29T07:21:44.621Z,23.81
2022-07-29T07:22:44.723Z,23.89
2022-07-29T07:23:46.230Z,23.82
2022-07-29T07:24:46.889Z,23.81
2022-07-29T07:25:47.533Z,23.99
2022-07-29T07:26:48.751Z,23.91
2022-07-29T07:27:48.395Z,23.91
2022-07-29T07:28:49.907Z,23.95
2022-07-29T07:29:50.199Z,24.06
2022-07-29T07:30:50.829Z,24.21
2022-07-29T07:31:51.561Z,24.25
2022-07-29T07:32:52.182Z,24.34
2022-07-29T07:33:52.805Z,24.41
2022-07-29T07:34:53.744Z,24.43
2022-07-29T07:35:53.951Z,24.51
2022-07-29T07:36:54.872Z,24.56
2022-07-29T07:37:55.781Z,24.59
2022-07-29T07:38:56.014Z,24.58
2022-07-29T07:39:57.231Z,24.61
2022-07-29T07:40:57.277Z,24.58
2022-07-29T07:41:58.484Z,24.55
2022-07-29T07:42:59.113Z,24.68
2022-07-29T07:43:59.039Z,24.74
2022-07-29T07:45:18.645Z,24.78
2022-07-29T07:46:00.434Z,24.85
2022-07-29T07:47:08.923Z,24.82
2022-07-29T07:48:00.863Z,24.88
2022-07-29T07:49:02.099Z,24.92
2022-07-29T07:50:02.349Z,24.88
2022-07-29T07:51:03.355Z,24.88
2022-07-29T07:52:03.288Z,24.84
2022-07-29T07:53:05.075Z,24.78
2022-07-29T07:54:05.298Z,24.81
2022-07-29T07:55:05.281Z,24.78
2022-07-29T07:56:23.299Z,24.65
2022-07-29T07:57:06.533Z,24.63
2022-07-29T07:58:06.469Z,24.71
2022-07-29T07:59:06.714Z,24.56
2022-07-29T08:00:07.944Z,24.59
2022-07-29T08:01:08.652Z,24.59
2022-07-29T08:02:09.505Z,24.51
2022-07-29T08:03:22.698Z,24.55
2022-07-29T08:04:10.630Z,24.53
2022-07-29T08:05:18.699Z,24.48
2022-07-29T08:06:11.603Z,24.56
2022-07-29T08:07:12.819Z,24.59
2022-07-29T08:08:13.029Z,24.55
2022-07-29T08:09:33.471Z,24.65
2022-07-29T08:10:13.406Z,24.62
2022-07-29T08:11:15.601Z,24.68
2022-07-29T08:12:14.529Z,24.75
2022-07-29T08:13:14.725Z,24.78
2022-07-29T08:14:14.987Z,24.84
2022-07-29T08:15:15.654Z,24.88
2022-07-29T08:16:16.541Z,24.89
2022-07-29T08:17:17.061Z,24.97
2022-07-29T08:18:17.575Z,24.92
2022-07-29T08:19:17.522Z,24.93
2022-07-29T08:20:17.905Z,24.97
2022-07-29T08:21:20.661Z,24.97
2022-07-29T08:22:19.595Z,24.86
2022-07-29T08:23:19.807Z,25.03
2022-07-29T08:24:19.788Z,25.06
2022-07-29T08:25:22.870Z,25.16
2022-07-29T08:26:20.818Z,25.16
2022-07-29T08:27:48.213Z,25.03
2022-07-29T08:28:26.401Z,25.12
2022-07-29T08:29:26.043Z,25.24
2022-07-29T08:30:23.657Z,25.19
2022-07-29T08:31:23.895Z,25.26
2022-07-29T08:32:55.819Z,25.24
2022-07-29T08:33:25.153Z,25.22
2022-07-29T08:34:32.697Z,25.21
2022-07-29T08:35:26.203Z,25.41
2022-07-29T08:36:26.366Z,25.56
2022-07-29T08:37:26.300Z,25.73
2022-07-29T08:38:26.808Z,25.88
2022-07-29T08:39:26.461Z,25.95
2022-07-29T08:40:37.316Z,26.07
2022-07-29T08:41:27.883Z,26.11
2022-07-29T08:42:28.277Z,26.18
2022-07-29T08:43:29.205Z,26.42
2022-07-29T08:44:36.376Z,26.45
2022-07-29T08:45:29.532Z,26.59
2022-07-29T08:46:29.886Z,26.63
2022-07-29T08:47:30.114Z,26.59
2022-07-29T08:48:30.674Z,26.53
2022-07-29T08:49:30.557Z,26.52
2022-07-29T08:50:31.479Z,26.37
2022-07-29T08:51:32.234Z,26.48
2022-07-29T08:52:32.884Z,26.44
2022-07-29T08:53:33.719Z,26.53
2022-07-29T08:54:34.370Z,26.44
2022-07-29T08:55:34.881Z,26.44
2022-07-29T08:56:34.835Z,26.39
2022-07-29T08:57:37.695Z,26.29
2022-07-29T08:58:38.611Z,26.29
2022-07-29T08:59:39.055Z,26.41
2022-07-29T09:00:38.971Z,26.45
2022-07-29T09:01:51.119Z,26.49
2022-07-29T09:02:41.990Z,26.42
2022-07-29T09:03:43.022Z,26.42
2022-07-29T09:04:42.857Z,26.49
2022-07-29T09:05:48.862Z,26.51
2022-07-29T09:06:44.529Z,26.31
2022-07-29T09:07:45.148Z,26.36
2022-07-29T09:08:45.650Z,26.31
2022-07-29T09:09:45.582Z,26.24
2022-07-29T09:10:46.508Z,26.19
2022-07-29T09:11:47.241Z,26.11
2022-07-29T09:12:47.784Z,26.1
2022-07-29T09:13:48.412Z,26.08
2022-07-29T09:14:49.629Z,26.06
2022-07-29T09:15:49.542Z,26.15
2022-07-29T09:16:56.662Z,26.06
2022-07-29T09:17:50.385Z,26.15
2022-07-29T09:18:51.037Z,26.07
2022-07-29T09:19:51.666Z,26.01
2022-07-29T09:20:52.800Z,25.99
2022-07-29T09:21:52.805Z,26.01
2022-07-29T09:22:53.497Z,26.01
2022-07-29T09:23:53.703Z,25.95
2022-07-29T09:24:54.411Z,25.92
2022-07-29T09:25:54.614Z,25.93
2022-07-29T09:26:55.734Z,25.89
2022-07-29T09:27:55.418Z,26.01
2022-07-29T09:28:55.372Z,25.98
2022-07-29T09:29:56.283Z,25.98
2022-07-29T09:30:56.952Z,25.95
2022-07-29T09:31:57.519Z,26.04
2022-07-29T09:32:58.443Z,25.98
2022-07-29T09:33:58.671Z,25.95
2022-07-29T09:35:04.151Z,26.03
2022-07-29T09:36:04.537Z,26.01
2022-07-29T09:37:00.879Z,25.95
2022-07-29T09:38:01.163Z,26.08
2022-07-29T09:39:01.813Z,26.03
2022-07-29T09:40:02.768Z,26.1
2022-07-29T09:41:06.972Z,26.06
2022-07-29T09:42:03.036Z,26.16
2022-07-29T09:43:03.233Z,26.1
2022-07-29T09:44:03.891Z,26.16
2022-07-29T09:45:03.962Z,26.23
2022-07-29T09:46:12.157Z,26.26
2022-07-29T09:47:06.329Z,26.29
2022-07-29T09:48:06.794Z,26.31
2022-07-29T09:49:09.305Z,26.34
2022-07-29T09:50:07.717Z,26.42
2022-07-29T09:51:08.053Z,26.71
2022-07-29T09:52:14.936Z,26.97
2022-07-29T09:53:15.142Z,27.19
2022-07-29T09:54:16.051Z,27.44
2022-07-29T09:55:24.355Z,28.06
2022-07-29T09:56:17.244Z,28.4
2022-07-29T09:57:18.674Z,28.38
2022-07-29T09:58:19.040Z,28.2
2022-07-29T09:59:19.276Z,28.09
2022-07-29T10:00:20.535Z,27.97
2022-07-29T10:01:20.777Z,27.91
2022-07-29T10:02:28.693Z,27.79
2022-07-29T10:03:23.147Z,27.82
2022-07-29T10:04:23.490Z,27.81
2022-07-29T10:05:24.423Z,28
2022-07-29T10:06:25.226Z,28.08
2022-07-29T10:07:25.162Z,28.49
2022-07-29T10:08:26.078Z,28.83
2022-07-29T10:09:28.307Z,29.15
2022-07-29T10:10:26.951Z,29.32
2022-07-29T10:11:49.378Z,29.35
2022-07-29T10:12:37.941Z,29.3
2022-07-29T10:13:38.580Z,29.42
2022-07-29T10:14:39.520Z,29.46
2022-07-29T10:15:40.752Z,29.34
2022-07-29T10:16:41.534Z,29.25
2022-07-29T10:17:47.380Z,29.1
2022-07-29T10:18:43.027Z,29.13
2022-07-29T10:19:43.973Z,28.92
2022-07-29T10:20:44.175Z,28.75
2022-07-29T10:21:44.886Z,28.59
2022-07-29T10:23:00.697Z,28.62
2022-07-29T10:24:06.885Z,28.4
2022-07-29T10:25:02.013Z,28.35
2022-07-29T10:26:02.919Z,28.3
2022-07-29T10:27:03.145Z,28.33
2022-07-29T10:28:03.791Z,28.35
2022-07-29T10:29:04.195Z,28.19
2022-07-29T10:30:05.052Z,28.35
2022-07-29T10:31:05.913Z,28.65
2022-07-29T10:32:05.952Z,28.71
2022-07-29T10:33:06.890Z,28.97
2022-07-29T10:34:07.858Z,29.09
2022-07-29T10:35:08.541Z,29.42
2022-07-29T10:36:09.613Z,29.59
2022-07-29T10:37:11.641Z,29.74
2022-07-29T10:38:16.689Z,29.9
2022-07-29T10:39:15.686Z,30.11
2022-07-29T10:40:15.869Z,30.23
2022-07-29T10:41:20.212Z,30.44
2022-07-29T10:42:20.295Z,30.63
2022-07-29T10:43:25.277Z,30.74
2022-07-29T10:44:25.342Z,30.88
2022-07-29T10:45:23.771Z,30.99
2022-07-29T10:46:26.170Z,31.18
2022-07-29T10:47:25.841Z,31.33
2022-07-29T10:48:29.532Z,31.48
2022-07-29T10:49:31.694Z,31.6
2022-07-29T10:50:27.512Z,31.63
2022-07-29T10:51:28.682Z,31.72
2022-07-29T10:52:38.613Z,31.82
2022-07-29T10:53:34.423Z,31.78
2022-07-29T10:54:30.896Z,31.95
2022-07-29T10:55:32.704Z,32.02
2022-07-29T10:56:32.852Z,32.07
2022-07-29T10:58:01.252Z,32.17
2022-07-29T10:58:35.753Z,32.16
2022-07-29T10:59:42.188Z,32.27
2022-07-29T11:00:36.434Z,32.44
2022-07-29T11:01:53.349Z,32.57
2022-07-29T11:02:51.250Z,32.54
2022-07-29T11:04:03.338Z,32.48
2022-07-29T11:04:59.965Z,32.63
2022-07-29T11:06:00.725Z,32.53
2022-07-29T11:07:04.470Z,32.41
2022-07-29T11:08:02.584Z,32.34
2022-07-29T11:09:09.607Z,32.31
2022-07-29T11:10:03.326Z,32.3
2022-07-29T11:11:04.797Z,32.24
2022-07-29T11:12:06.289Z,32.2
2022-07-29T11:13:06.117Z,32.07
2022-07-29T11:14:10.688Z,31.97
2022-07-29T11:15:06.423Z,31.74
2022-07-29T11:16:08.934Z,31.57
2022-07-29T11:17:07.329Z,31.48
2022-07-29T11:18:17.290Z,31.15
2022-07-29T11:19:08.535Z,31.02
2022-07-29T11:20:12.602Z,30.86
2022-07-29T11:21:10.548Z,30.69
2022-07-29T11:22:11.339Z,30.46
2022-07-29T11:23:12.524Z,30.43
2022-07-29T11:24:18.696Z,30.18
2022-07-29T11:27:20.384Z,29.67
2022-07-29T11:28:25.427Z,29.74
2022-07-29T11:29:18.814Z,29.61
2022-07-29T11:30:17.758Z,29.59
2022-07-29T11:31:17.000Z,29.43
2022-07-29T11:32:30.000Z,29.42
2022-07-29T11:33:56.343Z,29.12
2022-07-29T11:34:17.125Z,29.21
2022-07-29T11:35:39.692Z,29.05
2022-07-29T11:36:28.939Z,29
2022-07-29T11:37:20.252Z,28.92
2022-07-29T11:38:33.611Z,28.97
2022-07-29T11:42:44.927Z,29.47
2022-07-29T11:43:41.521Z,29.61
2022-07-29T11:44:40.275Z,29.79
2022-07-29T11:48:46.330Z,29.86
2022-07-29T11:49:50.706Z,29.73
2022-07-29T11:50:50.149Z,29.64
2022-07-29T11:51:54.622Z,29.46
2022-07-29T11:52:56.891Z,29.28
2022-07-29T11:53:52.926Z,29.18
2022-07-29T11:58:11.207Z,28.78
2022-07-29T11:59:08.808Z,28.65
2022-07-29T12:00:19.171Z,28.59
2022-07-29T12:01:10.258Z,28.56
2022-07-29T12:02:43.752Z,28.68
2022-07-29T12:03:07.092Z,28.7
2022-07-29T12:04:07.331Z,28.72
2022-07-29T12:05:37.102Z,28.62
2022-07-29T12:06:08.244Z,28.7
2022-07-29T12:07:15.826Z,28.64
2022-07-29T12:08:15.124Z,28.56
2022-07-29T12:09:15.076Z,28.6
2022-07-29T12:10:30.521Z,28.41
2022-07-29T12:11:14.358Z,28.41
2022-07-29T12:12:14.234Z,28.38
2022-07-29T12:13:12.719Z,28.34
2022-07-29T12:14:15.410Z,28.34
2022-07-29T12:15:15.780Z,28.37
2022-07-29T12:16:29.997Z,28.34
2022-07-29T12:17:15.817Z,28.31
2022-07-29T12:18:18.711Z,28.33
2022-07-29T12:19:17.711Z,28.34
2022-07-29T12:20:20.692Z,28.35
2022-07-29T12:21:18.897Z,28.4
2022-07-29T12:22:20.333Z,28.28
2022-07-29T12:23:22.221Z,28.43
2022-07-29T12:24:22.912Z,28.35
2022-07-29T12:25:38.543Z,28.4
2022-07-29T12:26:34.342Z,28.4
2022-07-29T12:27:29.753Z,28.4
2022-07-29T12:28:32.728Z,28.5
2022-07-29T12:29:48.887Z,28.64
2022-07-29T12:30:45.270Z,28.7
2022-07-29T12:31:49.382Z,28.78
2022-07-29T12:32:43.749Z,28.8
2022-07-29T12:33:43.378Z,28.92
2022-07-29T12:34:44.891Z,28.96
2022-07-29T12:36:03.413Z,28.94
2022-07-29T12:36:44.863Z,29
2022-07-29T12:37:48.562Z,29.12
2022-07-29T12:38:46.910Z,29.12
2022-07-29T12:39:47.743Z,29.16
2022-07-29T12:40:47.679Z,29.28
2022-07-29T12:41:48.600Z,29.43
2022-07-29T12:42:49.367Z,29.59
2022-07-29T12:43:49.873Z,29.62
2022-07-29T12:44:49.801Z,29.71
2022-07-29T12:45:50.138Z,29.81
2022-07-29T12:46:50.583Z,29.86
2022-07-29T12:47:51.301Z,29.87
2022-07-29T12:48:52.471Z,29.94
2022-07-29T12:49:52.099Z,29.98
2022-07-29T12:50:52.743Z,30.1
2022-07-29T12:51:53.956Z,30.08
2022-07-29T12:52:54.164Z,30.1
2022-07-29T12:53:55.091Z,30.18
2022-07-29T12:54:57.533Z,30.35
2022-07-29T12:55:56.457Z,30.26
2022-07-29T12:56:57.119Z,30.11
2022-07-29T12:57:56.747Z,30.14
2022-07-29T12:58:57.902Z,29.99
2022-07-29T12:59:58.633Z,30.13
2022-07-29T13:00:59.067Z,30.11
2022-07-29T13:02:01.017Z,30.17
2022-07-29T13:03:00.794Z,30.08
2022-07-29T13:04:03.483Z,29.94
2022-07-29T13:05:01.680Z,30.02
2022-07-29T13:06:01.605Z,30.02
2022-07-29T13:07:05.129Z,29.98
2022-07-29T13:08:04.779Z,30.17
2022-07-29T13:09:03.618Z,30.2
2022-07-29T13:10:03.493Z,30.16
2022-07-29T13:11:04.430Z,30.26
2022-07-29T13:12:06.297Z,30.32
2022-07-29T13:13:06.508Z,30.44
2022-07-29T13:14:13.109Z,30.48
2022-07-29T13:15:08.325Z,30.52
2022-07-29T13:16:08.746Z,30.59
2022-07-29T13:17:08.928Z,30.7
2022-07-29T13:18:09.140Z,30.7
2022-07-29T13:19:10.103Z,30.71
2022-07-29T13:20:14.535Z,30.83
2022-07-29T13:21:11.774Z,30.89
2022-07-29T13:22:12.722Z,30.91
2022-07-29T13:23:13.082Z,30.88
2022-07-29T13:24:19.862Z,30.83
2022-07-29T13:25:14.065Z,30.88
2022-07-29T13:26:14.992Z,30.95
2022-07-29T13:27:16.204Z,30.98
2022-07-29T13:28:16.710Z,31.04
2022-07-29T13:29:16.935Z,31.1